createdAt,value
2023-05-23T00:01:10.370Z,96.54
2023-05-23T00:03:37.508Z,97.23
2023-05-23T00:06:06.415Z,98.50
2023-05-23T00:08:33.005Z,98.74
2023-05-23T00:10:59.586Z,98.67
2023-05-23T00:13:26.886Z,98.63
2023-05-23T00:15:53.520Z,98.92
2023-05-23T00:18:20.135Z,98.94
2023-05-23T00:20:47.068Z,98.77
2023-05-23T00:23:19.421Z,98.73
2023-05-23T00:25:52.835Z,98.67
2023-05-23T00:28:20.825Z,99.02
2023-05-23T00:30:49.249Z,99.19
2023-05-23T00:33:16.658Z,98.38
2023-05-23T00:35:43.617Z,98.76
2023-05-23T00:38:11.642Z,99.25
2023-05-23T00:40:38.509Z,100.00
2023-05-23T00:43:05.120Z,100.00
2023-05-23T00:45:31.990Z,100.00
2023-05-23T00:48:00.299Z,100.00
2023-05-23T00:50:30.489Z,99.67
2023-05-23T00:52:58.152Z,99.18
2023-05-23T00:55:25.397Z,99.35
2023-05-23T00:57:55.652Z,100.00
2023-05-23T01:00:23.120Z,100.00
2023-05-23T01:02:53.643Z,100.00
2023-05-23T01:05:22.597Z,100.00
2023-05-23T01:07:50.394Z,100.00
2023-05-23T01:10:18.922Z,100.00
2023-05-23T01:12:46.371Z,100.00
2023-05-23T01:15:15.100Z,100.00
2023-05-23T01:17:45.206Z,100.00
2023-05-23T01:20:13.079Z,100.00
2023-05-23T01:22:39.737Z,100.00
2023-05-23T01:25:10.935Z,100.00
2023-05-23T01:27:52.987Z,100.00
2023-05-23T01:30:21.312Z,100.00
2023-05-23T01:32:53.726Z,100.00
2023-05-23T01:35:27.571Z,100.00
2023-05-23T01:37:56.004Z,100.00
2023-05-23T01:40:24.236Z,100.00
2023-05-23T01:42:51.858Z,100.00
2023-05-23T01:45:18.832Z,100.00
2023-05-23T01:47:46.411Z,100.00
2023-05-23T01:50:13.260Z,100.00
2023-05-23T01:52:40.119Z,100.00
2023-05-23T01:55:15.844Z,100.00
2023-05-23T01:57:42.911Z,100.00
2023-05-23T02:00:13.137Z,100.00
2023-05-23T02:02:46.014Z,100.00
2023-05-23T02:05:12.882Z,100.00
2023-05-23T02:07:39.719Z,100.00
2023-05-23T02:10:09.548Z,100.00
2023-05-23T02:12:36.225Z,100.00
2023-05-23T02:15:03.042Z,100.00
2023-05-23T02:17:30.832Z,100.00
2023-05-23T02:19:57.554Z,100.00
2023-05-23T02:22:27.144Z,100.00
2023-05-23T02:24:53.771Z,100.00
2023-05-23T02:27:20.507Z,100.00
2023-05-23T02:29:47.111Z,100.00
2023-05-23T02:32:13.969Z,100.00
2023-05-23T02:34:40.724Z,100.00
2023-05-23T02:37:07.813Z,100.00
2023-05-23T02:39:36.840Z,100.00
2023-05-23T02:42:04.869Z,100.00
2023-05-23T02:44:32.329Z,100.00
2023-05-23T02:46:59.005Z,100.00
2023-05-23T02:49:25.775Z,100.00
2023-05-23T02:51:52.610Z,100.00
2023-05-23T02:54:19.243Z,100.00
2023-05-23T02:56:46.168Z,100.00
2023-05-23T02:59:13.718Z,100.00
2023-05-23T03:01:40.551Z,100.00
2023-05-23T03:04:07.294Z,100.00
2023-05-23T03:06:34.363Z,100.00
2023-05-23T03:09:01.303Z,100.00
2023-05-23T03:11:29.815Z,100.00
2023-05-23T03:13:56.528Z,100.00
2023-05-23T03:16:24.051Z,100.00
2023-05-23T03:18:50.865Z,100.00
2023-05-23T03:21:17.533Z,100.00
2023-05-23T03:23:44.203Z,100.00
2023-05-23T03:26:10.761Z,100.00
2023-05-23T03:28:37.370Z,100.00
2023-05-23T03:31:03.952Z,100.00
2023-05-23T03:33:31.169Z,100.00
2023-05-23T03:35:57.786Z,100.00
2023-05-23T03:38:24.803Z,98.74
2023-05-23T03:40:51.785Z,91.94
2023-05-23T03:43:18.407Z,87.80
2023-05-23T03:45:45.365Z,84.26
2023-05-23T03:48:14.477Z,81.53
2023-05-23T03:50:42.068Z,77.91
2023-05-23T03:53:10.861Z,75.89
2023-05-23T03:55:39.178Z,76.08
2023-05-23T03:58:06.370Z,76.17
2023-05-23T04:00:33.040Z,76.14
2023-05-23T04:03:01.885Z,76.69
2023-05-23T04:05:29.391Z,77.58
2023-05-23T04:07:57.051Z,77.90
2023-05-23T04:10:24.042Z,78.03
2023-05-23T04:12:51.656Z,76.84
2023-05-23T04:15:18.318Z,75.34
2023-05-23T04:18:05.451Z,73.65
2023-05-23T04:20:32.363Z,71.96
2023-05-23T04:22:59.273Z,67.89
2023-05-23T04:25:27.296Z,63.33
2023-05-23T04:28:10.547Z,62.20
2023-05-23T04:30:37.231Z,61.23
2023-05-23T04:33:04.434Z,59.45
2023-05-23T04:35:34.214Z,60.03
2023-05-23T04:38:02.038Z,61.30
2023-05-23T04:40:30.532Z,57.62
2023-05-23T04:43:18.160Z,55.61
2023-05-23T04:45:50.048Z,50.34
2023-05-23T04:48:34.900Z,48.34
2023-05-23T04:51:06.213Z,47.20
2023-05-23T04:53:33.126Z,48.24
2023-05-23T04:55:59.734Z,46.51
2023-05-23T04:58:26.432Z,44.30
2023-05-23T05:00:56.977Z,44.51
2023-05-23T05:03:25.146Z,41.98
2023-05-23T05:05:52.218Z,41.27
2023-05-23T05:08:20.117Z,40.26
2023-05-23T05:10:47.138Z,40.57
2023-05-23T05:13:15.446Z,44.40
2023-05-23T05:15:46.530Z,45.83
2023-05-23T05:18:13.745Z,43.01
2023-05-23T05:20:41.507Z,44.44
2023-05-23T05:23:09.851Z,42.77
2023-05-23T05:25:38.292Z,39.51
2023-05-23T05:28:06.045Z,38.32
2023-05-23T05:30:37.462Z,37.78
2023-05-23T05:33:06.035Z,37.08
2023-05-23T05:35:33.119Z,37.30
2023-05-23T05:38:00.153Z,36.14
2023-05-23T05:40:26.755Z,35.99
2023-05-23T05:42:53.315Z,34.91
2023-05-23T05:45:21.607Z,35.08
2023-05-23T05:47:49.115Z,35.48
2023-05-23T05:50:20.305Z,34.64
2023-05-23T05:52:47.105Z,34.81
2023-05-23T05:55:13.916Z,34.41
2023-05-23T05:57:45.453Z,35.25
2023-05-23T06:00:15.196Z,34.48
2023-05-23T06:02:57.361Z,36.04
2023-05-23T06:05:37.564Z,35.78
2023-05-23T06:08:04.965Z,35.74
2023-05-23T06:10:31.542Z,37.12
2023-05-23T06:12:58.625Z,37.29
2023-05-23T06:15:26.028Z,35.85
2023-05-23T06:17:52.950Z,36.45
2023-05-23T06:20:19.850Z,36.48
2023-05-23T06:22:47.335Z,37.14
2023-05-23T06:25:13.968Z,37.57
2023-05-23T06:27:40.653Z,37.84
2023-05-23T06:30:07.922Z,38.86
2023-05-23T06:32:34.580Z,41.84
2023-05-23T06:35:01.226Z,41.56
2023-05-23T06:37:27.824Z,41.98
2023-05-23T06:39:56.317Z,41.95
2023-05-23T06:42:22.958Z,42.51
2023-05-23T06:44:56.830Z,41.40
2023-05-23T06:47:24.713Z,42.30
2023-05-23T06:49:51.330Z,41.14
2023-05-23T06:52:17.950Z,41.75
2023-05-23T06:54:44.633Z,40.67
2023-05-23T06:57:11.455Z,41.39
2023-05-23T06:59:38.715Z,39.74
2023-05-23T07:02:05.384Z,41.93
2023-05-23T07:04:32.114Z,39.68
2023-05-23T07:07:03.593Z,40.32
2023-05-23T07:09:30.694Z,38.63
2023-05-23T07:12:07.198Z,38.41
2023-05-23T07:14:38.276Z,39.26
2023-05-23T07:17:05.707Z,37.87
2023-05-23T07:19:33.802Z,38.32
2023-05-23T07:22:00.980Z,38.53
2023-05-23T07:24:31.009Z,38.52
2023-05-23T07:26:57.617Z,39.51
2023-05-23T07:29:25.782Z,39.25
2023-05-23T07:31:53.861Z,38.17
2023-05-23T07:34:22.178Z,40.08
2023-05-23T07:36:55.134Z,39.17
2023-05-23T07:39:24.521Z,41.00
2023-05-23T07:41:52.937Z,40.30
2023-05-23T07:44:22.277Z,39.19
2023-05-23T07:46:50.830Z,40.02
2023-05-23T07:49:17.489Z,39.95
2023-05-23T07:51:44.063Z,39.36
2023-05-23T07:54:10.760Z,40.20
2023-05-23T07:56:40.233Z,41.22
2023-05-23T07:59:08.763Z,43.37
2023-05-23T08:01:35.680Z,42.40
2023-05-23T08:04:04.645Z,43.22
2023-05-23T08:06:34.966Z,45.33
2023-05-23T08:09:06.767Z,46.54
2023-05-23T08:11:36.268Z,44.90
2023-05-23T08:14:03.148Z,45.28
2023-05-23T08:16:38.570Z,44.15
2023-05-23T08:19:10.553Z,44.56
2023-05-23T08:21:38.014Z,43.03
2023-05-23T08:24:04.729Z,44.15
2023-05-23T08:26:35.035Z,43.60
2023-05-23T08:29:03.963Z,43.20
2023-05-23T08:31:32.159Z,43.55
2023-05-23T08:33:59.913Z,45.91
2023-05-23T08:36:26.564Z,44.38
2023-05-23T08:38:53.697Z,44.44
2023-05-23T08:41:34.775Z,44.70
2023-05-23T08:44:05.305Z,43.51
2023-05-23T08:46:44.946Z,42.68
2023-05-23T08:49:17.847Z,43.38
2023-05-23T08:51:46.640Z,43.07
2023-05-23T08:54:19.490Z,44.56
2023-05-23T08:56:46.252Z,43.11
2023-05-23T08:59:13.086Z,44.87
2023-05-23T09:01:40.210Z,43.26
2023-05-23T09:04:09.644Z,42.96
2023-05-23T09:07:06.600Z,42.90
2023-05-23T09:09:34.210Z,44.33
2023-05-23T09:12:03.377Z,42.05
2023-05-23T09:14:31.769Z,42.04
2023-05-23T09:17:04.507Z,42.49
2023-05-23T09:19:32.259Z,41.84
2023-05-23T09:22:16.158Z,45.00
2023-05-23T09:24:57.080Z,43.19
2023-05-23T09:27:23.960Z,44.27
2023-05-23T09:29:50.818Z,44.09
2023-05-23T09:32:19.663Z,41.88
2023-05-23T09:34:57.235Z,43.51
2023-05-23T09:37:32.729Z,40.26
2023-05-23T09:40:06.825Z,42.40
2023-05-23T09:42:34.263Z,41.90
2023-05-23T09:45:04.127Z,42.08
2023-05-23T09:47:31.807Z,42.10
2023-05-23T09:49:58.703Z,41.77
2023-05-23T09:52:26.167Z,42.03
2023-05-23T09:54:52.798Z,43.06
2023-05-23T09:57:19.440Z,43.04
2023-05-23T09:59:51.971Z,41.74
2023-05-23T10:02:25.155Z,43.38
2023-05-23T10:04:52.981Z,44.44
2023-05-23T10:07:22.422Z,42.85
2023-05-23T10:09:56.799Z,42.51
2023-05-23T10:12:33.961Z,42.25
2023-05-23T10:15:05.214Z,42.31
2023-05-23T10:17:50.878Z,41.66
2023-05-23T10:20:18.216Z,40.75
2023-05-23T10:22:45.076Z,41.79
2023-05-23T10:25:11.779Z,42.30
2023-05-23T10:27:39.183Z,43.15
2023-05-23T10:30:09.450Z,41.58
2023-05-23T10:32:37.312Z,40.88
2023-05-23T10:35:07.229Z,39.31
2023-05-23T10:37:48.980Z,39.21
2023-05-23T10:40:45.052Z,40.49
2023-05-23T10:43:20.679Z,41.33
2023-05-23T10:45:50.663Z,40.58
2023-05-23T10:48:29.562Z,40.88
2023-05-23T10:51:03.972Z,41.24
2023-05-23T10:53:31.256Z,42.54
2023-05-23T10:55:58.401Z,41.64
2023-05-23T10:58:25.004Z,41.74
2023-05-23T11:00:55.147Z,41.01
2023-05-23T11:03:53.989Z,42.06
2023-05-23T11:06:44.712Z,41.81
2023-05-23T11:09:22.248Z,40.54
2023-05-23T11:11:54.632Z,41.94
2023-05-23T11:14:34.297Z,42.46
2023-05-23T11:17:01.593Z,42.92
2023-05-23T11:19:29.053Z,41.54
2023-05-23T11:21:57.505Z,40.93
2023-05-23T11:24:24.309Z,42.56
2023-05-23T11:27:00.410Z,43.44
2023-05-23T11:29:28.796Z,47.69
2023-05-23T11:31:56.324Z,46.61
2023-05-23T11:34:25.425Z,44.84
2023-05-23T11:36:56.300Z,45.04
2023-05-23T11:39:23.296Z,45.17
2023-05-23T11:42:02.046Z,43.16
2023-05-23T11:44:28.857Z,42.99
2023-05-23T11:47:02.389Z,43.62
2023-05-23T11:49:29.875Z,41.82
2023-05-23T11:51:56.640Z,41.00
2023-05-23T11:54:24.421Z,40.98
2023-05-23T11:56:51.228Z,41.23
2023-05-23T11:59:17.781Z,40.23
2023-05-23T12:01:44.340Z,39.00
2023-05-23T12:04:13.944Z,41.12
2023-05-23T12:06:44.084Z,41.24
2023-05-23T12:09:11.723Z,40.27
2023-05-23T12:11:39.540Z,39.41
2023-05-23T12:14:06.760Z,40.06
2023-05-23T12:16:33.816Z,39.58
2023-05-23T12:19:01.440Z,39.39
2023-05-23T12:21:40.817Z,40.29
2023-05-23T12:24:13.714Z,38.95
2023-05-23T12:26:46.902Z,38.87
2023-05-23T12:29:13.465Z,38.47
2023-05-23T12:31:40.388Z,37.59
2023-05-23T12:34:07.012Z,37.80
2023-05-23T12:36:36.216Z,38.15
2023-05-23T12:39:06.371Z,38.79
2023-05-23T12:41:33.605Z,37.91
2023-05-23T12:44:00.470Z,37.14
2023-05-23T12:46:27.839Z,38.07
2023-05-23T12:48:54.423Z,37.43
2023-05-23T12:51:21.316Z,38.31
2023-05-23T12:53:48.126Z,38.58
2023-05-23T12:56:14.690Z,37.73
2023-05-23T12:58:41.411Z,37.54
2023-05-23T13:01:08.101Z,36.82
2023-05-23T13:03:34.806Z,39.01
2023-05-23T13:06:01.760Z,39.03
2023-05-23T13:08:29.372Z,39.25
2023-05-23T13:10:56.680Z,40.66
2023-05-23T13:13:23.312Z,39.56
2023-05-23T13:15:51.131Z,38.54
2023-05-23T13:18:18.380Z,38.84
2023-05-23T13:20:45.391Z,38.59
2023-05-23T13:23:12.120Z,38.46
2023-05-23T13:25:38.849Z,38.57
2023-05-23T13:28:05.625Z,38.21
2023-05-23T13:30:32.345Z,39.11
2023-05-23T13:32:58.971Z,39.27
2023-05-23T13:35:25.689Z,39.81
2023-05-23T13:37:52.276Z,38.51
2023-05-23T13:40:19.777Z,39.21
2023-05-23T13:42:47.528Z,38.81
2023-05-23T13:45:14.930Z,38.42
2023-05-23T13:47:41.588Z,38.02
2023-05-23T13:50:08.983Z,39.05
2023-05-23T13:52:36.023Z,40.02
2023-05-23T13:55:04.616Z,40.79
2023-05-23T13:57:31.529Z,40.90
2023-05-23T13:59:58.204Z,41.55
2023-05-23T14:02:24.830Z,42.84
2023-05-23T14:04:51.647Z,42.75
2023-05-23T14:07:18.443Z,42.86
2023-05-23T14:09:45.406Z,43.87
2023-05-23T14:12:11.999Z,44.22
2023-05-23T14:14:38.613Z,45.36
2023-05-23T14:17:05.631Z,45.32
2023-05-23T14:19:32.399Z,44.24
2023-05-23T14:21:59.156Z,44.49
2023-05-23T14:24:25.746Z,44.17
2023-05-23T14:26:52.532Z,45.35
2023-05-23T14:29:19.098Z,46.33
2023-05-23T14:31:45.840Z,45.92
2023-05-23T14:34:13.554Z,46.18
2023-05-23T14:36:40.128Z,46.55
2023-05-23T14:39:10.358Z,48.42
2023-05-23T14:41:37.284Z,48.89
2023-05-23T14:44:04.329Z,51.20
2023-05-23T14:46:31.309Z,53.39
2023-05-23T14:48:58.155Z,55.53
2023-05-23T14:51:43.035Z,58.48
2023-05-23T14:54:11.536Z,62.64
2023-05-23T14:56:38.290Z,64.06
2023-05-23T14:59:05.292Z,66.09
2023-05-23T15:01:31.930Z,64.71
2023-05-23T15:03:58.701Z,65.92
2023-05-23T15:06:25.355Z,66.91
2023-05-23T15:08:52.323Z,66.09
2023-05-23T15:11:18.952Z,66.10
2023-05-23T15:13:45.673Z,67.68
2023-05-23T15:16:12.737Z,66.43
2023-05-23T15:18:42.057Z,67.28
2023-05-23T15:21:09.003Z,68.31
2023-05-23T15:23:35.841Z,66.91
2023-05-23T15:26:02.449Z,67.10
2023-05-23T15:28:29.144Z,66.90
2023-05-23T15:30:57.176Z,67.97
2023-05-23T15:33:23.839Z,66.86
2023-05-23T15:35:51.218Z,66.52
2023-05-23T15:38:19.853Z,66.42
2023-05-23T15:40:48.859Z,67.67
2023-05-23T15:43:15.666Z,67.96
2023-05-23T15:45:42.478Z,68.39
2023-05-23T15:48:09.316Z,68.49
2023-05-23T15:50:36.200Z,69.41
2023-05-23T15:53:02.880Z,70.41
2023-05-23T15:55:29.578Z,70.94
2023-05-23T15:57:56.114Z,71.96
2023-05-23T16:00:22.890Z,73.21
2023-05-23T16:02:49.517Z,74.76
2023-05-23T16:05:16.235Z,75.80
2023-05-23T16:07:42.808Z,77.26
2023-05-23T16:10:09.608Z,79.45
2023-05-23T16:12:36.161Z,80.86
2023-05-23T16:15:02.818Z,81.81
2023-05-23T16:17:29.468Z,81.86
2023-05-23T16:19:56.106Z,83.37
2023-05-23T16:22:23.203Z,83.86
2023-05-23T16:24:49.834Z,84.69
2023-05-23T16:27:16.603Z,84.70
2023-05-23T16:29:43.399Z,83.90
2023-05-23T16:32:10.065Z,83.88
2023-05-23T16:34:36.700Z,84.35
2023-05-23T16:37:03.349Z,85.85
2023-05-23T16:39:29.970Z,86.65
2023-05-23T16:41:57.524Z,87.04
2023-05-23T16:44:26.317Z,87.97
2023-05-23T16:46:53.020Z,87.83
2023-05-23T16:49:19.648Z,88.11
2023-05-23T16:51:48.539Z,87.40
2023-05-23T16:54:15.820Z,88.28
2023-05-23T16:56:42.931Z,88.04
2023-05-23T16:59:09.505Z,87.56
2023-05-23T17:01:36.169Z,88.36
2023-05-23T17:04:04.092Z,88.33
2023-05-23T17:06:31.398Z,87.62
2023-05-23T17:08:58.022Z,88.15
2023-05-23T17:11:25.410Z,89.16
2023-05-23T17:13:52.330Z,87.49
2023-05-23T17:16:20.689Z,88.84
2023-05-23T17:18:47.434Z,89.23
2023-05-23T17:21:14.091Z,88.61
2023-05-23T17:23:40.831Z,89.36
2023-05-23T17:26:07.505Z,89.47
2023-05-23T17:28:34.125Z,90.16
2023-05-23T17:31:00.983Z,89.44
2023-05-23T17:33:27.585Z,89.28
2023-05-23T17:35:54.178Z,89.81
2023-05-23T17:38:20.769Z,90.34
2023-05-23T17:40:47.463Z,90.16
2023-05-23T17:43:14.071Z,90.68
2023-05-23T17:45:41.486Z,91.78
2023-05-23T17:48:08.230Z,93.58
2023-05-23T17:50:34.809Z,95.11
2023-05-23T17:53:04.113Z,94.61
2023-05-23T17:55:31.058Z,94.51
2023-05-23T17:57:57.669Z,95.00
2023-05-23T18:00:24.508Z,94.80
2023-05-23T18:02:51.838Z,94.73
2023-05-23T18:05:20.783Z,95.15
2023-05-23T18:07:47.769Z,96.52
2023-05-23T18:10:14.457Z,96.63
2023-05-23T18:12:41.147Z,97.64
2023-05-23T18:15:08.227Z,97.15
2023-05-23T18:17:35.009Z,97.84
2023-05-23T18:20:02.194Z,98.08
2023-05-23T18:22:31.702Z,98.38
2023-05-23T18:24:58.369Z,98.52
2023-05-23T18:27:25.100Z,98.89
2023-05-23T18:29:51.909Z,99.23
2023-05-23T18:32:18.636Z,99.29
2023-05-23T18:34:45.201Z,99.45
2023-05-23T18:37:11.736Z,99.73
2023-05-23T18:39:38.753Z,99.57
2023-05-23T18:42:05.672Z,100.00
2023-05-23T18:44:32.291Z,100.00
2023-05-23T18:46:58.988Z,100.00
2023-05-23T18:49:25.578Z,100.00
2023-05-23T18:51:54.401Z,100.00
2023-05-23T18:54:20.979Z,100.00
2023-05-23T18:56:47.555Z,100.00
2023-05-23T18:59:15.908Z,100.00
2023-05-23T19:01:42.702Z,100.00
2023-05-23T19:04:10.021Z,100.00
2023-05-23T19:06:36.874Z,100.00
2023-05-23T19:09:09.369Z,100.00
2023-05-23T19:11:37.385Z,100.00
2023-05-23T19:14:04.175Z,100.00
2023-05-23T19:16:30.848Z,100.00
2023-05-23T19:18:57.864Z,100.00
2023-05-23T19:21:24.505Z,100.00
2023-05-23T19:23:51.330Z,100.00
2023-05-23T19:26:19.229Z,100.00
2023-05-23T19:28:47.270Z,100.00
2023-05-23T19:31:13.967Z,100.00
2023-05-23T19:33:40.853Z,100.00
2023-05-23T19:36:07.468Z,100.00
2023-05-23T19:38:34.017Z,100.00
2023-05-23T19:41:00.690Z,100.00
2023-05-23T19:43:27.290Z,100.00
2023-05-23T19:45:53.883Z,100.00
2023-05-23T19:48:20.690Z,100.00
2023-05-23T19:50:47.621Z,100.00
2023-05-23T19:53:14.294Z,100.00
2023-05-23T19:55:42.717Z,100.00
2023-05-23T19:58:09.445Z,100.00
2023-05-23T20:00:36.336Z,100.00
2023-05-23T20:03:03.650Z,100.00
2023-05-23T20:05:30.588Z,100.00
2023-05-23T20:07:57.196Z,100.00
2023-05-23T20:10:24.355Z,100.00
2023-05-23T20:12:51.145Z,100.00
2023-05-23T20:15:24.511Z,100.00
2023-05-23T20:17:54.471Z,100.00
2023-05-23T20:20:21.146Z,100.00
2023-05-23T20:22:47.805Z,100.00
2023-05-23T20:25:14.439Z,100.00
2023-05-23T20:27:41.180Z,100.00
2023-05-23T20:30:08.330Z,100.00
2023-05-23T20:32:34.999Z,100.00
2023-05-23T20:35:01.917Z,100.00
2023-05-23T20:37:28.504Z,100.00
2023-05-23T20:39:55.159Z,100.00
2023-05-23T20:42:21.953Z,100.00
2023-05-23T20:44:48.606Z,100.00
2023-05-23T20:47:15.683Z,100.00
2023-05-23T20:49:42.556Z,100.00
2023-05-23T20:52:09.120Z,100.00
2023-05-23T20:54:36.655Z,100.00
2023-05-23T20:57:03.853Z,100.00
2023-05-23T20:59:30.519Z,100.00
2023-05-23T21:01:57.571Z,100.00
2023-05-23T21:04:24.464Z,100.00
2023-05-23T21:06:51.350Z,100.00
2023-05-23T21:09:17.980Z,100.00
2023-05-23T21:11:44.643Z,100.00
2023-05-23T21:14:11.342Z,100.00
2023-05-23T21:16:38.065Z,100.00
2023-05-23T21:19:04.802Z,100.00
2023-05-23T21:21:31.373Z,100.00
2023-05-23T21:23:57.990Z,100.00
2023-05-23T21:26:24.584Z,100.00
2023-05-23T21:28:51.199Z,100.00
2023-05-23T21:31:24.083Z,100.00
2023-05-23T21:33:56.759Z,100.00
2023-05-23T21:36:23.301Z,100.00
2023-05-23T21:38:49.874Z,100.00
2023-05-23T21:41:16.682Z,100.00
2023-05-23T21:43:43.217Z,100.00
2023-05-23T21:46:09.884Z,100.00
2023-05-23T21:48:36.468Z,100.00
2023-05-23T21:51:03.060Z,100.00
2023-05-23T21:53:29.656Z,100.00
2023-05-23T21:55:56.207Z,100.00
2023-05-23T21:58:22.813Z,100.00
2023-05-23T22:00:49.379Z,100.00
2023-05-23T22:03:16.055Z,100.00
2023-05-23T22:05:42.794Z,100.00
2023-05-23T22:08:09.400Z,100.00
2023-05-23T22:10:40.503Z,100.00
2023-05-23T22:13:07.447Z,100.00
2023-05-23T22:15:35.373Z,100.00
2023-05-23T22:18:03.246Z,100.00
2023-05-23T22:20:34.328Z,100.00
2023-05-23T22:23:02.287Z,100.00
2023-05-23T22:25:32.484Z,100.00
2023-05-23T22:28:01.321Z,100.00
2023-05-23T22:30:28.495Z,100.00
2023-05-23T22:32:55.195Z,100.00
2023-05-23T22:35:21.779Z,100.00
2023-05-23T22:37:48.503Z,100.00
2023-05-23T22:40:15.132Z,100.00
2023-05-23T22:42:41.841Z,100.00
2023-05-23T22:45:09.217Z,100.00
2023-05-23T22:47:35.838Z,100.00
2023-05-23T22:50:02.496Z,100.00
2023-05-23T22:52:31.192Z,100.00
2023-05-23T22:54:57.888Z,100.00
2023-05-23T22:57:24.592Z,100.00
2023-05-23T22:59:51.286Z,100.00
2023-05-23T23:02:17.971Z,99.74
2023-05-23T23:04:44.612Z,98.89
2023-05-23T23:07:11.500Z,98.50
2023-05-23T23:09:38.063Z,97.84
2023-05-23T23:12:04.739Z,97.66
2023-05-23T23:14:31.269Z,98.03
2023-05-23T23:16:58.264Z,97.10
2023-05-23T23:19:25.130Z,95.84
2023-05-23T23:21:51.844Z,93.38
2023-05-23T23:24:18.495Z,91.81
2023-05-23T23:26:45.075Z,89.36
2023-05-23T23:29:11.697Z,87.56
2023-05-23T23:31:38.367Z,85.33
2023-05-23T23:34:04.982Z,84.76
2023-05-23T23:36:31.546Z,82.97
2023-05-23T23:38:58.076Z,80.96
2023-05-23T23:41:24.714Z,79.62
2023-05-23T23:43:51.382Z,79.63
2023-05-23T23:46:18.783Z,78.08
2023-05-23T23:48:45.632Z,78.24
2023-05-23T23:51:12.932Z,77.24
2023-05-23T23:53:39.832Z,77.64
2023-05-23T23:56:06.564Z,77.16
2023-05-23T23:58:33.157Z,76.03
